Time;durP1;ratioP1;P1;durP2;ratioP2;P2;SDS_P1;SDS_P2;PMS_P1;PMS_P2;Temp;Humidity;BMP_temperature;BMP_pressure;BME280_temperature;BME280_humidity;BME280_pressure;Samples;Min_cycle;Max_cycle;Signal;HPM_P1;HPM_P2
2021/04/18 00:00:21;;;;;;;15.00;11.93;;;6.60;69.60;;;4.67;67.95;96199.72;4959860;28;20479;-72
2021/04/18 00:02:48;;;;;;;13.65;11.82;;;6.70;69.80;;;4.64;67.77;96192.22;4970658;28;20147;-72
2021/04/18 00:05:15;;;;;;;14.40;12.00;;;6.60;69.70;;;4.63;68.00;96185.38;4959724;28;20511;-72
2021/04/18 00:07:41;;;;;;;14.20;11.48;;;6.60;70.10;;;4.61;68.06;96187.31;4967285;28;20062;-72
2021/04/18 00:10:08;;;;;;;16.20;11.93;;;6.60;69.70;;;4.57;68.26;96188.56;4965436;28;20123;-72
2021/04/18 00:12:34;;;;;;;13.45;11.45;;;6.60;69.70;;;4.55;68.07;96190.50;4969934;28;20034;-72
2021/04/18 00:15:00;;;;;;;14.77;12.15;;;6.60;70.00;;;4.53;68.37;96180.25;4969936;28;20043;-72
2021/04/18 00:17:26;;;;;;;16.20;13.07;;;6.60;70.40;;;4.53;68.59;96180.25;4966022;28;20119;-71
2021/04/18 00:19:51;;;;;;;16.23;12.60;;;6.60;70.40;;;4.51;68.34;96176.94;4952086;28;20579;-72
2021/04/18 00:22:17;;;;;;;14.60;12.60;;;6.60;70.30;;;4.53;68.89;96175.03;4955255;28;20053;-72
2021/04/18 00:24:43;;;;;;;15.10;12.82;;;6.50;70.60;;;4.50;68.53;96174.50;4966776;28;20031;-73
2021/04/18 00:27:08;;;;;;;16.80;12.82;;;6.50;70.80;;;4.46;68.75;96167.94;4968927;28;20195;-72
2021/04/18 00:29:34;;;;;;;15.45;12.00;;;6.50;70.80;;;4.46;68.83;96178.38;4970327;28;20099;-72
2021/04/18 00:32:00;;;;;;;18.58;13.25;;;6.50;71.10;;;4.43;68.97;96168.25;4969687;28;20066;-72
2021/04/18 00:34:26;;;;;;;15.60;12.50;;;6.40;71.40;;;4.41;69.08;96170.19;4970498;28;20136;-72
2021/04/18 00:36:53;;;;;;;14.25;12.50;;;6.40;71.00;;;4.37;69.03;96166.25;4969908;28;20109;-72
2021/04/18 00:39:19;;;;;;;15.85;12.75;;;6.40;71.00;;;4.37;69.07;96171.47;4967928;28;20051;-72
2021/04/18 00:41:45;;;;;;;16.02;13.15;;;6.40;71.30;;;4.37;69.25;96168.84;4955339;28;20066;-72
2021/04/18 00:44:11;;;;;;;14.10;12.02;;;6.40;71.40;;;4.37;69.31;96171.47;4959025;28;20039;-71
2021/04/18 00:46:38;;;;;;;15.75;12.85;;;6.40;71.50;;;4.37;69.42;96169.69;4951127;28;20031;-72
2021/04/18 00:49:05;;;;;;;15.52;12.98;;;6.40;71.30;;;4.36;69.36;96169.81;4968731;28;20046;-72
2021/04/18 00:51:30;;;;;;;17.20;13.20;;;6.30;71.30;;;4.33;68.79;96172.72;4971021;28;20402;-73
2021/04/18 00:53:56;;;;;;;16.45;13.63;;;6.30;71.40;;;4.30;69.43;96171.25;4964814;28;20071;-73
2021/04/18 00:56:22;;;;;;;16.15;12.52;;;6.30;71.50;;;4.29;69.85;96170.41;4968344;28;20073;-72
2021/04/18 00:58:48;;;;;;;15.70;13.05;;;6.30;71.50;;;4.28;69.60;96166.16;4970369;28;20062;-72
2021/04/18 01:01:13;;;;;;;15.63;13.30;;;6.30;71.60;;;4.28;69.57;96157.53;4966430;28;20446;-72
2021/04/18 01:03:39;;;;;;;16.73;13.57;;;6.20;71.60;;;4.26;69.75;96157.69;4970754;28;20581;-72
2021/04/18 01:06:05;;;;;;;16.55;13.65;;;6.20;71.50;;;4.25;69.68;96156.03;4966500;28;20050;-73
2021/04/18 01:08:31;;;;;;;15.80;13.75;;;6.20;71.70;;;4.25;69.78;96158.66;4958175;28;20126;-72
2021/04/18 01:10:56;;;;;;;15.25;13.25;;;6.30;71.50;;;4.24;69.76;96159.63;4956712;28;20035;-73
2021/04/18 01:13:22;;;;;;;17.45;13.85;;;6.30;71.70;;;4.23;69.65;96150.16;4952151;28;20462;-73
2021/04/18 01:15:48;;;;;;;16.75;13.23;;;6.30;71.70;;;4.23;69.95;96150.16;4954553;28;20042;-72
2021/04/18 01:18:14;;;;;;;17.15;14.60;;;6.30;71.90;;;4.21;69.88;96149.50;4958348;28;20118;-72
2021/04/18 01:20:39;;;;;;;17.85;14.13;;;6.20;72.10;;;4.21;70.07;96154.72;4951337;28;20558;-72
2021/04/18 01:23:05;;;;;;;18.35;13.52;;;6.20;72.40;;;4.20;70.12;96141.84;4964341;28;20141;-72
2021/04/18 01:25:31;;;;;;;18.02;13.77;;;6.20;72.30;;;4.20;70.17;96147.88;4956346;28;20456;-72
2021/04/18 01:27:56;;;;;;;17.00;13.98;;;6.20;72.20;;;4.19;70.31;96150.63;4950762;28;20577;-72
2021/04/18 01:30:28;;;;;;;17.00;13.70;;;6.20;72.20;;;4.19;71.45;96145.41;4966851;28;20062;-72
2021/04/18 01:32:55;;;;;;;18.10;13.65;;;6.20;72.30;;;4.16;70.65;96145.72;4968080;28;20124;-72
2021/04/18 01:35:21;;;;;;;17.38;14.07;;;6.20;72.20;;;4.16;70.50;96145.72;4968587;28;20510;-72
2021/04/18 01:37:47;;;;;;;15.40;13.50;;;6.20;72.30;;;4.14;70.34;96143.25;4968329;28;20035;-73
2021/04/18 01:40:15;;;;;;;18.65;13.88;;;6.20;72.50;;;4.13;71.44;96136.41;4954607;28;20502;-72
2021/04/18 01:42:41;;;;;;;16.08;13.90;;;6.10;72.60;;;4.10;70.58;96141.91;4969765;28;20031;-73
2021/04/18 01:45:08;;;;;;;18.25;14.10;;;6.10;72.70;;;4.09;70.81;96140.28;4966801;28;20035;-73
2021/04/18 01:47:34;;;;;;;17.90;14.30;;;6.10;72.80;;;4.08;70.64;96143.84;4969569;28;20506;-73
2021/04/18 01:50:00;;;;;;;17.30;14.45;;;6.10;72.80;;;4.05;70.83;96141.53;4966003;28;20112;-72
2021/04/18 01:52:26;;;;;;;18.70;14.55;;;6.10;72.80;;;4.07;70.91;96143.97;4960864;28;20047;-74
2021/04/18 01:54:52;;;;;;;18.67;14.30;;;6.10;73.10;;;4.07;70.97;96147.41;4939831;28;20388;-73
2021/04/18 01:57:17;;;;;;;20.25;14.38;;;6.10;73.00;;;4.07;71.10;96146.56;4969108;28;20038;-73
2021/04/18 01:59:43;;;;;;;17.73;14.15;;;6.20;73.00;;;4.07;71.18;96144.78;4969472;28;20593;-73
2021/04/18 02:02:11;;;;;;;18.33;14.15;;;6.20;72.80;;;4.09;71.48;96144.69;4968123;28;20600;-73
2021/04/18 02:04:37;;;;;;;17.98;14.77;;;6.20;73.00;;;4.09;71.13;96148.09;4966933;28;20085;-73
2021/04/18 02:07:04;;;;;;;19.52;14.45;;;6.20;73.00;;;4.11;71.68;96153.97;4969455;28;20031;-73
2021/04/18 02:09:30;;;;;;;18.02;13.95;;;6.20;73.00;;;4.11;71.21;96148.75;4958652;28;20146;-73
2021/04/18 02:12:00;;;;;;;19.45;14.18;;;6.20;72.90;;;4.11;71.52;96148.75;4954343;28;20423;-74
2021/04/18 02:14:26;;;;;;;18.20;14.65;;;6.20;73.10;;;4.13;71.40;96151.22;4949911;28;20113;-73
2021/04/18 02:16:52;;;;;;;18.00;14.48;;;6.20;73.20;;;4.14;71.34;96147.66;4952568;28;20555;-73
2021/04/18 02:19:18;;;;;;;18.27;14.30;;;6.20;73.20;;;4.12;71.30;96141.78;4950721;28;20062;-73
2021/04/18 02:21:44;;;;;;;18.55;14.23;;;6.20;73.30;;;4.13;71.50;96143.41;4967113;28;20122;-73
2021/04/18 02:24:10;;;;;;;16.90;13.88;;;6.20;73.30;;;4.13;71.50;96146.00;4960427;28;20043;-73
2021/04/18 02:26:36;;;;;;;18.27;14.50;;;6.20;73.70;;;4.12;71.66;96140.00;4949685;28;20384;-72
2021/04/18 02:29:05;;;;;;;20.65;14.63;;;6.20;73.70;;;4.14;72.68;96143.25;4933603;29;20090;-73
2021/04/18 02:31:30;;;;;;;18.02;14.18;;;6.20;74.00;;;4.13;71.86;96143.41;4962984;28;20046;-73
2021/04/18 02:33:56;;;;;;;19.80;15.52;;;6.20;74.10;;;4.12;71.98;96142.59;4952395;28;20062;-73
2021/04/18 02:36:22;;;;;;;18.48;14.93;;;6.20;73.80;;;4.12;72.06;96142.59;4963950;28;20085;-71
2021/04/18 02:38:47;;;;;;;21.58;16.25;;;6.20;74.10;;;4.12;72.20;96145.19;4969259;28;20039;-72
2021/04/18 02:41:13;;;;;;;21.35;15.35;;;6.20;74.30;;;4.13;72.18;96138.19;4957416;28;20404;-72
2021/04/18 02:43:39;;;;;;;18.40;14.25;;;6.20;74.20;;;4.12;71.98;96133.97;4964711;28;20419;-72
2021/04/18 02:46:05;;;;;;;18.42;14.85;;;6.20;74.20;;;4.13;72.18;96139.03;4967779;28;20058;-71
2021/04/18 02:48:30;;;;;;;18.52;14.98;;;6.20;73.90;;;4.13;72.26;96135.59;4954895;28;20043;-73
2021/04/18 02:50:56;;;;;;;20.23;14.93;;;6.20;74.00;;;4.13;72.53;96146.81;4969943;28;20031;-72
2021/04/18 02:53:22;;;;;;;18.90;14.80;;;6.20;73.80;;;4.13;72.30;96141.63;4961678;28;20093;-72
2021/04/18 02:55:48;;;;;;;19.50;14.80;;;6.20;74.00;;;4.14;72.06;96135.44;4950648;28;20046;-73
2021/04/18 02:58:14;;;;;;;17.35;13.75;;;6.20;73.80;;;4.14;72.12;96132.84;4965837;28;20589;-73
2021/04/18 03:00:39;;;;;;;22.02;15.27;;;6.20;73.80;;;4.12;72.07;96134.78;4955724;28;20062;-73
2021/04/18 03:03:05;;;;;;;18.27;14.55;;;6.20;73.50;;;4.11;72.14;96138.34;4968957;28;20495;-72
2021/04/18 03:05:31;;;;;;;18.83;14.38;;;6.20;73.40;;;4.11;72.22;96140.94;4954118;28;20046;-73
2021/04/18 03:07:57;;;;;;;19.63;14.23;;;6.20;73.40;;;4.10;71.93;96136.72;4966786;28;20579;-72
2021/04/18 03:10:23;;;;;;;20.05;15.13;;;6.10;73.50;;;4.10;72.26;96138.50;4967663;28;20035;-73
2021/04/18 03:12:48;;;;;;;19.55;14.30;;;6.10;73.70;;;4.06;72.39;96127.53;4962435;28;20051;-72
2021/04/18 03:15:15;;;;;;;21.25;15.35;;;6.10;73.40;;;4.06;71.99;96130.13;4967696;28;20143;-73
2021/04/18 03:17:40;;;;;;;18.05;14.43;;;6.10;73.40;;;4.05;72.28;96125.91;4968378;28;20082;-72
2021/04/18 03:20:07;;;;;;;30.73;22.95;;;6.10;73.10;;;4.05;72.24;96131.09;4969198;28;20031;-72
2021/04/18 03:22:33;;;;;;;36.80;26.27;;;6.10;73.70;;;4.06;72.19;96127.53;4953521;28;20460;-73
2021/04/18 03:24:58;;;;;;;29.63;22.42;;;6.20;74.00;;;4.07;72.31;96131.78;4961417;28;20062;-72
2021/04/18 03:27:24;;;;;;;20.02;15.18;;;6.20;73.90;;;4.08;72.41;96135.22;4954852;28;20040;-72
2021/04/18 03:29:50;;;;;;;21.77;15.30;;;6.10;73.40;;;4.08;72.46;96133.44;4960042;28;20046;-73
2021/04/18 03:32:16;;;;;;;22.02;15.02;;;6.20;73.30;;;4.10;72.25;96131.50;4968867;28;20513;-73
2021/04/18 03:34:41;;;;;;;19.00;14.77;;;6.20;73.30;;;4.09;72.19;96127.28;4963210;28;20034;-72
2021/04/18 03:37:07;;;;;;;19.33;14.70;;;6.10;73.10;;;4.07;72.11;96129.19;4964422;28;20066;-72
2021/04/18 03:39:33;;;;;;;18.83;14.95;;;6.10;73.30;;;4.05;72.16;96131.09;4949343;28;20129;-73
2021/04/18 03:41:59;;;;;;;27.55;14.63;;;6.10;73.20;;;4.03;71.99;96135.66;4950941;28;20102;-73
2021/04/18 03:44:25;;;;;;;19.98;15.25;;;6.10;73.20;;;4.00;72.36;96125.53;4963358;28;20248;-73
2021/04/18 03:46:51;;;;;;;17.63;14.27;;;6.10;73.20;;;3.99;72.34;96118.69;4966009;28;20102;-73
2021/04/18 03:49:17;;;;;;;19.42;14.90;;;6.10;73.40;;;3.98;72.29;96132.69;4968286;28;20035;-73
2021/04/18 03:51:43;;;;;;;20.92;15.90;;;6.10;73.20;;;3.98;72.43;96132.69;4968392;28;20039;-72
2021/04/18 03:54:09;;;;;;;18.05;14.48;;;6.10;73.30;;;3.98;72.39;96132.69;4964226;28;20046;-72
2021/04/18 03:56:35;;;;;;;18.52;14.57;;;6.10;73.20;;;3.95;72.20;96125.97;4966241;28;20216;-73
2021/04/18 03:59:00;;;;;;;19.13;15.23;;;6.10;73.20;;;3.95;72.53;96127.78;4968172;28;20054;-74
2021/04/18 04:01:26;;;;;;;20.45;15.13;;;6.00;73.40;;;3.96;72.34;96127.63;4956479;28;20047;-73
2021/04/18 04:03:52;;;;;;;18.85;14.80;;;6.00;73.50;;;3.96;72.48;96124.19;4961072;28;20422;-73
2021/04/18 04:06:17;;;;;;;19.13;15.23;;;6.10;73.50;;;3.95;72.27;96125.16;4963216;28;20066;-73
2021/04/18 04:08:43;;;;;;;22.00;14.80;;;6.00;73.50;;;3.93;72.31;96133.13;4960159;28;20360;-72
2021/04/18 04:11:09;;;;;;;21.27;15.50;;;6.00;73.70;;;3.92;72.34;96128.06;4952164;28;20055;-72
2021/04/18 04:13:35;;;;;;;21.17;15.27;;;6.00;73.50;;;3.92;72.75;96128.88;4961485;28;20051;-73
2021/04/18 04:16:00;;;;;;;19.13;15.18;;;6.00;73.50;;;3.92;71.91;96131.50;4950533;28;20173;-73
2021/04/18 04:18:26;;;;;;;18.92;14.02;;;6.00;73.50;;;3.90;72.28;96135.22;4954307;28;20122;-73
2021/04/18 04:20:52;;;;;;;19.75;14.80;;;5.90;73.90;;;3.88;72.53;96132.75;4954184;28;20038;-72
2021/04/18 04:23:18;;;;;;;21.42;15.18;;;6.00;73.80;;;3.85;72.57;96132.22;4962642;28;20046;-72
2021/04/18 04:25:43;;;;;;;22.77;15.23;;;5.90;73.80;;;3.84;72.31;96140.97;4949520;28;20046;-72
2021/04/18 04:28:09;;;;;;;20.85;15.55;;;5.90;74.00;;;3.82;72.45;96137.69;4961679;28;20043;-71
2021/04/18 04:30:35;;;;;;;20.85;15.75;;;5.80;74.20;;;3.81;72.52;96136.06;4961826;28;20039;-73
2021/04/18 04:33:01;;;;;;;21.23;15.73;;;5.90;74.00;;;3.79;72.75;96138.81;4952967;28;20039;-73
2021/04/18 04:35:27;;;;;;;21.27;15.82;;;5.90;74.20;;;3.81;73.17;96142.09;4970043;28;20050;-72
2021/04/18 04:37:52;;;;;;;22.15;15.77;;;5.90;74.30;;;3.81;72.87;96133.47;4949288;28;20035;-72
2021/04/18 04:40:18;;;;;;;19.38;15.27;;;5.90;74.20;;;3.80;72.81;96132.66;4948513;28;20431;-72
2021/04/18 04:42:44;;;;;;;22.38;16.45;;;5.90;74.10;;;3.80;73.40;96137.84;4954937;28;20537;-73
2021/04/18 04:45:10;;;;;;;19.75;15.57;;;5.90;74.30;;;3.82;73.05;96140.31;4971185;28;20288;-72
2021/04/18 04:47:36;;;;;;;21.98;16.30;;;5.90;74.20;;;3.83;73.13;96141.94;4970776;28;20027;-72
2021/04/18 04:50:02;;;;;;;22.15;16.60;;;5.90;74.20;;;3.84;73.26;96152.19;4957353;28;20038;-73
2021/04/18 04:52:28;;;;;;;21.10;16.05;;;5.90;74.50;;;3.86;73.49;96149.47;4966971;28;20038;-73
2021/04/18 04:54:54;;;;;;;20.08;15.27;;;6.00;74.40;;;3.84;73.35;96146.19;4956976;28;20563;-73
2021/04/18 04:57:19;;;;;;;24.02;16.95;;;6.00;74.30;;;3.86;73.08;96146.88;4951614;28;20073;-73
2021/04/18 04:59:45;;;;;;;24.15;16.52;;;6.00;74.30;;;3.86;73.42;96141.66;4969617;28;20062;-73
2021/04/18 05:02:11;;;;;;;21.83;15.63;;;6.00;74.60;;;3.88;73.44;96147.53;4959440;28;20066;-71
2021/04/18 05:04:36;;;;;;;21.92;16.83;;;6.00;74.50;;;3.90;73.43;96150.81;4951990;28;20515;-77
2021/04/18 05:07:02;;;;;;;21.17;16.70;;;6.00;74.80;;;3.90;73.41;96156.84;4959677;28;20140;-73
2021/04/18 05:09:28;;;;;;;22.00;15.82;;;6.00;75.00;;;3.89;73.59;96154.38;4961480;28;20039;-74
2021/04/18 05:11:55;;;;;;;20.83;16.02;;;6.00;74.90;;;3.89;73.65;96162.19;4967681;28;20507;-72
2021/04/18 05:14:21;;;;;;;23.30;17.20;;;6.00;74.80;;;3.90;73.42;96163.81;4969261;28;20698;-74
2021/04/18 05:16:46;;;;;;;23.75;16.98;;;6.00;75.00;;;3.91;73.71;96171.47;4960924;28;20049;-74
2021/04/18 05:19:12;;;;;;;22.77;17.20;;;6.00;74.90;;;3.89;73.49;96162.19;4951406;28;20419;-74
2021/04/18 05:21:38;;;;;;;24.33;17.30;;;6.00;75.20;;;3.89;73.89;96159.59;4958168;28;20777;-74
2021/04/18 05:24:04;;;;;;;24.50;17.45;;;6.00;75.50;;;3.92;73.53;96161.91;4968912;28;20038;-73
2021/04/18 05:26:30;;;;;;;21.10;16.73;;;6.10;75.50;;;3.93;74.09;96155.72;4970306;28;20126;-73
2021/04/18 05:28:56;;;;;;;23.67;17.25;;;6.10;75.60;;;3.94;74.01;96159.97;4970171;28;20714;-74
2021/04/18 05:31:22;;;;;;;26.45;18.38;;;6.10;75.20;;;3.93;74.01;96173.94;4984079;28;20031;-74
2021/04/18 05:33:48;;;;;;;44.92;31.75;;;6.10;75.30;;;3.95;74.25;96174.59;4971074;28;20117;-74
2021/04/18 05:36:14;;;;;;;30.75;23.00;;;6.10;75.60;;;3.98;74.11;96172.53;4957644;28;20053;-73
2021/04/18 05:38:40;;;;;;;24.42;18.55;;;6.10;75.70;;;4.00;74.03;96168.00;4951152;28;20035;-74
2021/04/18 05:41:05;;;;;;;25.05;18.40;;;6.10;75.30;;;4.00;74.26;96174.97;4962534;28;20090;-73
2021/04/18 05:43:31;;;;;;;26.48;19.25;;;6.20;74.90;;;4.02;74.03;96175.66;4960485;28;20031;-74
2021/04/18 05:45:57;;;;;;;23.63;18.20;;;6.20;74.80;;;4.05;74.47;96179.75;4969133;28;20043;-74
2021/04/18 05:48:22;;;;;;;22.48;18.13;;;6.20;75.00;;;4.04;73.62;96181.53;4968964;28;20069;-75
2021/04/18 05:50:48;;;;;;;25.00;17.95;;;6.10;75.30;;;4.09;74.15;96181.94;4957616;28;20046;-74
2021/04/18 05:53:14;;;;;;;26.85;17.27;;;6.20;74.80;;;4.12;73.83;96181.63;4968209;28;20117;-75
2021/04/18 05:55:41;;;;;;;26.25;19.30;;;6.30;74.60;;;4.14;74.34;96190.13;4969477;28;20311;-74
2021/04/18 05:58:07;;;;;;;24.75;17.95;;;6.30;74.90;;;4.17;74.19;96183.78;4970242;28;20121;-73
2021/04/18 06:00:33;;;;;;;26.40;18.90;;;6.40;74.20;;;4.16;73.95;96182.97;4969644;28;20030;-74
2021/04/18 06:02:59;;;;;;;25.08;18.08;;;6.40;74.00;;;4.20;74.04;96181.72;4970081;28;20033;-74
2021/04/18 06:05:25;;;;;;;26.25;18.95;;;6.50;73.60;;;4.24;74.16;96184.84;4970560;28;20031;-74
2021/04/18 06:07:51;;;;;;;25.98;18.70;;;6.50;74.10;;;4.27;74.21;96181.94;4968789;28;20043;-75
2021/04/18 06:10:17;;;;;;;28.08;18.48;;;6.50;73.50;;;4.31;73.91;96180.69;4970169;28;20063;-74
2021/04/18 06:12:42;;;;;;;24.73;17.85;;;6.60;73.60;;;4.38;73.88;96186.13;4968934;28;20250;-74
2021/04/18 06:15:09;;;;;;;25.00;17.58;;;6.70;73.40;;;4.44;74.04;96183.72;4969851;28;20700;-74
2021/04/18 06:17:34;;;;;;;24.17;17.88;;;6.80;72.80;;;4.47;73.89;96188.63;4969959;28;20471;-75
2021/04/18 06:20:00;;;;;;;24.90;18.35;;;6.80;72.80;;;4.52;73.98;96191.59;4969061;28;20039;-74
2021/04/18 06:22:26;;;;;;;25.25;18.00;;;6.80;72.90;;;4.55;73.72;96188.72;4969773;28;20510;-74
2021/04/18 06:24:52;;;;;;;28.45;20.55;;;6.80;72.50;;;4.61;73.49;96182.09;4968145;28;20027;-75
2021/04/18 06:27:18;;;;;;;30.60;20.40;;;7.00;72.60;;;4.69;73.97;96178.72;4968557;28;20098;-74
2021/04/18 06:29:44;;;;;;;28.30;19.98;;;7.10;71.90;;;4.73;73.16;96186.09;4970288;28;20027;-75
2021/04/18 06:32:09;;;;;;;34.28;24.17;;;7.10;71.50;;;4.80;73.12;96176.72;4962310;28;20823;-75
2021/04/18 06:34:35;;;;;;;32.38;22.45;;;7.20;71.60;;;4.89;73.50;96186.22;4949053;28;20115;-75
2021/04/18 06:37:02;;;;;;;31.90;21.33;;;7.40;71.10;;;5.00;72.98;96179.97;4953235;28;20563;-74
2021/04/18 06:39:28;;;;;;;25.48;18.58;;;7.50;71.00;;;5.11;73.01;96181.50;4953734;28;20043;-74
2021/04/18 06:41:55;;;;;;;23.48;17.35;;;7.60;70.60;;;5.20;72.51;96175.34;4958614;28;20035;-76
2021/04/18 06:44:21;;;;;;;32.65;23.08;;;7.60;69.30;;;5.26;72.67;96166.94;4968343;28;20093;-74
2021/04/18 06:46:50;;;;;;;31.65;23.13;;;7.60;68.90;;;5.35;72.64;96171.19;4960062;28;20031;-70
2021/04/18 06:49:16;;;;;;;26.63;19.35;;;7.80;68.80;;;5.42;72.04;96164.38;4956740;28;20031;-74
2021/04/18 06:51:43;;;;;;;24.30;17.83;;;7.90;68.10;;;5.52;72.41;96172.94;4962474;28;20041;-73
2021/04/18 06:54:10;;;;;;;22.45;16.73;;;8.10;68.40;;;5.57;71.43;96171.66;4961295;28;20038;-72
2021/04/18 06:56:36;;;;;;;24.17;16.73;;;8.00;67.50;;;5.63;71.30;96173.63;4951080;28;20046;-73
2021/04/18 06:59:03;;;;;;;21.67;16.00;;;8.00;66.40;;;5.67;71.50;96167.13;4969536;28;20074;-69
2021/04/18 07:01:29;;;;;;;24.17;18.05;;;8.10;66.30;;;5.76;71.51;96166.19;4968622;28;20122;-72
2021/04/18 07:04:09;;;;;;;24.75;18.35;;;8.20;66.70;;;5.85;71.20;96167.84;4968880;28;20038;-70
2021/04/18 07:06:42;;;;;;;31.67;23.25;;;8.20;67.20;;;5.91;71.29;96172.47;4965744;28;20121;-70
2021/04/18 07:09:08;;;;;;;25.05;18.50;;;8.30;66.80;;;5.98;70.83;96170.88;4969202;28;20030;-71
2021/04/18 07:11:48;;;;;;;23.33;18.38;;;8.40;66.80;;;6.06;70.81;96164.84;4968475;28;20117;-72
2021/04/18 07:14:29;;;;;;;23.95;17.48;;;8.50;65.90;;;6.13;70.31;96171.91;4951330;28;20033;-69
2021/04/18 07:17:09;;;;;;;23.15;17.15;;;8.60;65.40;;;6.20;68.76;96166.03;4952628;28;20595;-72
2021/04/18 07:19:37;;;;;;;22.60;17.55;;;8.70;64.80;;;6.24;69.35;96162.09;4948465;29;20066;-73
2021/04/18 07:22:03;;;;;;;22.33;17.23;;;8.60;64.70;;;6.34;70.29;96168.84;4962651;28;20050;-70
2021/04/18 07:24:29;;;;;;;24.23;18.15;;;8.90;64.00;;;6.42;70.20;96163.63;4960035;28;20038;-70
2021/04/18 07:27:01;;;;;;;25.60;18.98;;;8.90;64.20;;;6.45;69.38;96167.69;4965652;28;20357;-71
2021/04/18 07:29:29;;;;;;;25.17;19.05;;;8.90;63.90;;;6.51;68.89;96164.44;4958248;28;20585;-70
2021/04/18 07:31:58;;;;;;;27.50;20.88;;;8.90;63.50;;;6.52;68.83;96167.84;4968895;28;20035;-72
2021/04/18 07:34:24;;;;;;;26.38;19.95;;;8.70;63.70;;;6.51;69.20;96172.28;4955663;28;20038;-70
2021/04/18 07:37:11;;;;;;;29.90;21.98;;;8.80;64.10;;;6.51;68.96;96167.03;4967853;28;20030;-68
2021/04/18 07:39:54;;;;;;;33.50;23.45;;;8.60;63.90;;;6.54;67.94;96169.31;4967468;28;20037;-69
2021/04/18 07:42:34;;;;;;;33.97;24.60;;;8.80;64.80;;;6.53;68.32;96167.69;4965255;28;20047;-71
2021/04/18 07:45:12;;;;;;;42.20;30.25;;;8.70;64.70;;;6.53;68.45;96157.25;4948377;28;20039;-69
2021/04/18 07:47:40;;;;;;;47.60;35.17;;;8.60;64.10;;;6.53;67.67;96167.69;4959679;28;20117;-70
2021/04/18 07:50:10;;;;;;;33.53;25.33;;;8.70;64.60;;;6.54;67.61;96164.09;4954651;28;20042;-71
2021/04/18 07:52:46;;;;;;;33.60;26.20;;;8.80;64.90;;;6.58;68.55;96172.47;4959076;28;20428;-68
2021/04/18 07:55:13;;;;;;;32.50;24.05;;;8.90;64.10;;;6.62;67.66;96165.94;4951176;28;20050;-67
2021/04/18 07:57:39;;;;;;;34.22;25.30;;;9.00;63.80;;;6.68;68.58;96163.47;4949320;28;20038;-69
2021/04/18 08:00:08;;;;;;;33.03;25.60;;;9.10;63.60;;;6.73;68.18;96163.78;4948262;29;20032;-74
2021/04/18 08:02:34;;;;;;;41.53;30.80;;;9.10;62.90;;;6.79;67.68;96162.34;4966602;28;20042;-74
2021/04/18 08:05:00;;;;;;;31.65;24.50;;;9.20;64.20;;;6.82;67.55;96162.00;4967307;28;20378;-74
2021/04/18 08:07:26;;;;;;;33.38;24.48;;;9.30;63.40;;;6.93;67.89;96173.91;4950898;28;20605;-74
2021/04/18 08:10:24;;;;;;;32.03;24.90;;;9.40;63.40;;;6.98;67.42;96172.44;4961891;28;20066;-73
2021/04/18 08:13:10;;;;;;;31.88;24.85;;;9.50;63.20;;;7.04;67.26;96176.22;4966597;28;20031;-71
2021/04/18 08:15:54;;;;;;;28.52;21.38;;;9.40;63.60;;;7.11;66.61;96169.34;4949076;28;20047;-67
2021/04/18 08:18:33;;;;;;;28.25;22.25;;;9.60;62.10;;;7.18;66.21;96170.28;4963157;28;20118;-68
2021/04/18 08:21:00;;;;;;;29.38;22.58;;;9.60;62.30;;;7.25;67.86;96163.44;4971225;28;20114;-72
2021/04/18 08:23:39;;;;;;;30.17;23.23;;;9.60;62.80;;;7.33;66.79;96184.34;4968695;28;20843;-73
2021/04/18 08:26:15;;;;;;;26.17;21.52;;;9.70;62.70;;;7.33;67.20;96171.25;4952506;28;20050;-70
2021/04/18 08:28:56;;;;;;;28.38;21.08;;;9.70;62.60;;;7.36;66.92;96170.91;4955963;28;20043;-72
2021/04/18 08:31:29;;;;;;;28.25;21.55;;;9.60;63.10;;;7.27;66.14;96171.94;4966797;28;20047;-73
2021/04/18 08:34:04;;;;;;;26.65;20.92;;;9.40;62.20;;;7.19;66.48;96171.94;4968571;28;20046;-73
2021/04/18 08:36:32;;;;;;;27.20;21.15;;;9.40;62.00;;;7.14;65.89;96178.66;4965504;28;20032;-71
2021/04/18 08:39:01;;;;;;;28.85;21.85;;;9.30;62.50;;;7.09;66.21;96173.91;4967626;28;20494;-71
2021/04/18 08:41:40;;;;;;;28.45;21.13;;;9.20;62.90;;;7.10;67.43;96177.34;4965950;28;20090;-75
2021/04/18 08:44:37;;;;;;;26.60;20.00;;;9.30;64.10;;;7.05;66.09;96172.63;4951287;29;20031;-73
2021/04/18 08:47:05;;;;;;;24.92;19.23;;;9.10;63.80;;;7.03;66.75;96185.03;4963080;28;20073;-75
2021/04/18 08:49:34;;;;;;;26.52;20.48;;;9.10;63.00;;;7.00;66.76;96180.94;4961836;28;20038;-73
2021/04/18 08:52:02;;;;;;;33.72;23.02;;;9.10;64.10;;;7.02;66.53;96186.03;4969295;28;20050;-67
2021/04/18 08:54:31;;;;;;;28.48;22.08;;;9.20;64.00;;;7.04;67.36;96189.28;4959403;28;20042;-73
2021/04/18 08:57:00;;;;;;;28.45;20.88;;;9.30;64.50;;;7.06;67.45;96184.72;4965685;28;20130;-72
2021/04/18 08:59:26;;;;;;;57.67;38.85;;;9.40;64.00;;;7.11;67.10;96185.03;4953740;28;20031;-72
2021/04/18 09:02:06;;;;;;;53.10;37.83;;;9.50;64.30;;;7.18;68.04;96188.59;4961879;28;20556;-71
2021/04/18 09:04:36;;;;;;;29.80;22.52;;;9.60;64.70;;;7.23;67.45;96186.31;4951023;28;20039;-73
2021/04/18 09:07:02;;;;;;;27.45;21.45;;;9.60;63.20;;;7.24;67.04;96187.13;4965029;28;20042;-72
2021/04/18 09:09:28;;;;;;;29.20;21.45;;;9.50;63.80;;;7.21;67.47;96185.66;4965302;28;20053;-72
2021/04/18 09:11:55;;;;;;;24.33;20.48;;;9.40;63.10;;;7.24;66.40;96187.97;4952230;28;20550;-71
2021/04/18 09:14:32;;;;;;;25.27;20.95;;;9.50;62.10;;;7.32;66.33;96184.50;4954070;28;20050;-71
2021/04/18 09:17:15;;;;;;;28.60;20.80;;;9.60;62.20;;;7.40;65.65;96186.28;4966488;28;20050;-73
2021/04/18 09:20:04;;;;;;;30.35;22.98;;;9.70;61.80;;;7.48;66.21;96183.66;4961507;28;20096;-72
2021/04/18 09:22:40;;;;;;;30.60;23.65;;;10.00;61.30;;;7.63;66.38;96176.72;4970311;28;20042;-72
2021/04/18 09:25:09;;;;;;;44.45;25.08;;;10.30;60.50;;;7.73;65.55;96187.84;4967951;28;20042;-73
2021/04/18 09:27:40;;;;;;;31.50;21.48;;;10.30;60.10;;;7.81;64.54;96185.19;4959191;28;20054;-73
2021/04/18 09:30:12;;;;;;;25.02;19.63;;;10.30;58.50;;;7.86;64.46;96188.09;4952321;28;20119;-72
2021/04/18 09:32:44;;;;;;;24.08;19.00;;;10.20;58.80;;;7.91;64.71;96184.97;4970014;28;20526;-73
2021/04/18 09:35:11;;;;;;;25.52;19.60;;;10.20;58.50;;;7.88;64.16;96186.13;4971009;28;20047;-73
2021/04/18 09:37:42;;;;;;;23.25;18.20;;;10.10;58.70;;;7.88;63.77;96191.38;4972733;28;20853;-73
2021/04/18 09:40:13;;;;;;;23.55;19.15;;;10.10;58.40;;;7.92;62.98;96186.59;4945245;28;20043;-73
2021/04/18 09:42:45;;;;;;;23.92;19.05;;;10.20;58.00;;;7.96;63.96;96188.75;4963845;28;20035;-71
2021/04/18 09:45:22;;;;;;;26.40;20.52;;;10.40;58.00;;;8.04;63.54;96185.25;4954653;28;20764;-69
2021/04/18 09:47:50;;;;;;;22.30;18.15;;;10.50;58.20;;;8.07;63.42;96187.53;4969936;28;20573;-74
2021/04/18 09:50:32;;;;;;;22.05;18.10;;;10.50;56.70;;;8.14;61.88;96185.84;4970011;28;20042;-74
2021/04/18 09:53:29;;;;;;;23.63;19.10;;;10.50;56.10;;;8.22;61.53;96190.25;4965725;28;20046;-71
2021/04/18 09:56:05;;;;;;;22.52;17.00;;;10.60;56.40;;;8.30;62.66;96184.97;4952155;28;20050;-73
2021/04/18 09:58:36;;;;;;;20.90;16.88;;;10.70;55.80;;;8.38;62.69;96187.56;4961220;28;20126;-71
2021/04/18 10:01:02;;;;;;;21.67;17.05;;;10.80;55.80;;;8.42;62.68;96178.38;4964209;28;20042;-71
2021/04/18 10:03:38;;;;;;;21.08;16.98;;;10.90;54.50;;;8.53;61.71;96185.00;4970239;28;20675;-71
2021/04/18 10:06:04;;;;;;;20.25;16.38;;;11.10;56.30;;;8.57;62.34;96181.84;4968154;28;20119;-71
2021/04/18 10:08:37;;;;;;;20.85;16.83;;;11.00;54.70;;;8.65;60.69;96183.63;4951418;28;20445;-72
2021/04/18 10:11:05;;;;;;;19.83;16.42;;;11.10;54.70;;;8.69;60.77;96184.09;4951241;28;20448;-71
2021/04/18 10:13:56;;;;;;;20.42;16.33;;;11.10;53.40;;;8.75;59.68;96183.38;4981625;28;20765;-75
2021/04/18 10:16:23;;;;;;;;;;;11.30;54.00;;;8.83;60.27;96189.41;4971711;28;20049;-75
2021/04/18 10:19:18;;;;;;;18.30;15.85;;;11.60;54.10;;;8.99;59.35;96177.94;4965974;28;20013;-74
2021/04/18 10:22:07;;;;;;;18.88;15.65;;;11.60;52.80;;;9.19;60.29;96180.88;4970131;28;20049;-75